createdAt,value
2019-05-25T00:00:32.827Z,3.43
2019-05-25T00:02:59.492Z,3.37
2019-05-25T00:05:26.256Z,3.47
2019-05-25T00:07:52.625Z,3.60
2019-05-25T00:10:19.304Z,3.57
2019-05-25T00:12:45.570Z,4.00
2019-05-25T00:15:12.574Z,3.20
2019-05-25T00:17:38.845Z,3.40
2019-05-25T00:20:05.523Z,3.53
2019-05-25T00:22:31.812Z,3.53
2019-05-25T00:24:58.222Z,3.23
2019-05-25T00:27:24.856Z,3.60
2019-05-25T00:29:52.315Z,3.20
2019-05-25T00:32:18.717Z,3.63
2019-05-25T00:34:45.179Z,3.70
2019-05-25T00:37:11.779Z,3.63
2019-05-25T00:39:38.062Z,4.07
2019-05-25T00:42:04.468Z,3.90
2019-05-25T00:44:31.211Z,3.67
2019-05-25T00:46:57.864Z,3.93
2019-05-25T00:49:24.246Z,3.53
2019-05-25T00:51:50.825Z,3.83
2019-05-25T00:54:27.487Z,3.63
2019-05-25T00:56:46.387Z,3.37
2019-05-25T00:59:13.134Z,3.27
2019-05-25T01:01:39.726Z,3.73
2019-05-25T01:04:06.021Z,3.47
2019-05-25T01:06:32.381Z,3.63
2019-05-25T01:08:59.036Z,3.37
2019-05-25T01:11:25.770Z,3.60
2019-05-25T01:13:53.162Z,3.57
2019-05-25T01:16:19.578Z,3.57
2019-05-25T01:18:46.040Z,3.33
2019-05-25T01:21:12.554Z,3.83
2019-05-25T01:23:38.828Z,3.53
2019-05-25T01:26:05.599Z,3.43
2019-05-25T01:28:31.870Z,3.93
2019-05-25T01:30:58.472Z,3.53
2019-05-25T01:33:25.116Z,3.43
2019-05-25T01:35:51.515Z,3.67
2019-05-25T01:38:18.136Z,3.67
2019-05-25T01:40:44.820Z,3.30
2019-05-25T01:43:11.262Z,3.60
2019-05-25T01:45:37.992Z,3.43
2019-05-25T01:48:05.778Z,2.90
2019-05-25T01:50:32.511Z,3.40
2019-05-25T01:52:58.891Z,3.17
2019-05-25T01:55:25.163Z,3.17
2019-05-25T01:57:51.803Z,3.30
2019-05-25T02:00:19.463Z,3.03
2019-05-25T02:02:45.854Z,3.30
2019-05-25T02:05:12.536Z,3.37
2019-05-25T02:07:38.922Z,3.50
2019-05-25T02:10:06.983Z,3.23
2019-05-25T02:12:33.776Z,3.20
2019-05-25T02:15:00.042Z,3.00
2019-05-25T02:17:26.475Z,3.53
2019-05-25T02:19:52.748Z,3.40
2019-05-25T02:22:19.140Z,3.03
2019-05-25T02:24:45.502Z,3.17
2019-05-25T02:27:11.799Z,3.30
2019-05-25T02:29:38.070Z,3.00
2019-05-25T02:32:04.562Z,3.07
2019-05-25T02:34:30.856Z,3.23
2019-05-25T02:36:57.501Z,2.90
2019-05-25T02:39:23.786Z,2.67
2019-05-25T02:41:50.182Z,3.17
2019-05-25T02:44:16.478Z,3.17
2019-05-25T02:46:42.968Z,3.00
2019-05-25T02:49:10.070Z,3.00
2019-05-25T02:51:36.330Z,2.87
2019-05-25T02:54:03.563Z,3.13
2019-05-25T02:56:29.828Z,2.80
2019-05-25T02:58:56.124Z,2.47
2019-05-25T03:01:22.486Z,2.50
2019-05-25T03:03:49.806Z,2.60
2019-05-25T03:06:19.384Z,3.30
2019-05-25T03:08:46.602Z,3.03
2019-05-25T03:11:12.858Z,3.10
2019-05-25T03:13:40.623Z,2.90
2019-05-25T03:16:06.914Z,3.43
2019-05-25T03:18:33.182Z,2.87
2019-05-25T03:20:59.615Z,3.30
2019-05-25T03:23:26.074Z,3.37
2019-05-25T03:25:52.487Z,3.03
2019-05-25T03:28:19.150Z,2.67
2019-05-25T03:30:45.435Z,2.30
2019-05-25T03:33:12.127Z,2.17
2019-05-25T03:35:38.425Z,2.23
2019-05-25T03:38:05.004Z,1.90
2019-05-25T03:40:31.876Z,1.97
2019-05-25T03:42:58.230Z,2.33
2019-05-25T03:45:24.607Z,1.83
2019-05-25T03:47:51.018Z,1.90
2019-05-25T03:50:17.474Z,1.70
2019-05-25T03:52:44.175Z,1.77
2019-05-25T03:55:10.765Z,2.00
2019-05-25T03:57:37.141Z,2.27
2019-05-25T04:00:06.427Z,1.83
2019-05-25T04:02:33.028Z,1.67
2019-05-25T04:04:59.297Z,1.90
2019-05-25T04:07:25.587Z,1.60
2019-05-25T04:09:51.951Z,1.97
2019-05-25T04:12:18.238Z,2.23
2019-05-25T04:14:44.497Z,1.87
2019-05-25T04:17:11.110Z,2.00
2019-05-25T04:19:37.470Z,1.67
2019-05-25T04:22:04.074Z,2.63
2019-05-25T04:24:30.731Z,2.57
2019-05-25T04:26:57.463Z,2.50
2019-05-25T04:29:23.752Z,2.23
2019-05-25T04:31:50.026Z,1.77
2019-05-25T04:34:16.516Z,1.67
2019-05-25T04:36:42.775Z,2.10
2019-05-25T04:39:09.071Z,2.00
2019-05-25T04:41:35.454Z,2.17
2019-05-25T04:44:01.747Z,2.47
2019-05-25T04:46:28.307Z,2.47
2019-05-25T04:48:54.605Z,2.23
2019-05-25T04:51:21.114Z,2.20
2019-05-25T04:53:47.406Z,2.67
2019-05-25T04:56:15.681Z,2.57
2019-05-25T04:58:43.058Z,2.40
2019-05-25T05:01:09.352Z,3.10
2019-05-25T05:03:35.618Z,2.80
2019-05-25T05:06:15.667Z,2.63
2019-05-25T05:08:42.026Z,2.60
2019-05-25T05:11:08.320Z,2.80
2019-05-25T05:13:34.596Z,2.83
2019-05-25T05:16:00.990Z,3.40
2019-05-25T05:18:27.363Z,3.03
2019-05-25T05:20:53.764Z,2.97
2019-05-25T05:23:21.055Z,2.93
2019-05-25T05:25:47.343Z,3.33
2019-05-25T05:28:13.658Z,3.30
2019-05-25T05:30:40.147Z,3.60
2019-05-25T05:33:06.514Z,3.10
2019-05-25T05:35:33.998Z,3.63
2019-05-25T05:38:04.870Z,3.03
2019-05-25T05:40:32.466Z,2.97
2019-05-25T05:42:59.422Z,2.73
2019-05-25T05:45:28.303Z,2.87
2019-05-25T05:47:56.602Z,3.10
2019-05-25T05:50:23.539Z,2.80
2019-05-25T05:52:53.047Z,2.20
2019-05-25T05:55:23.475Z,2.50
2019-05-25T05:57:50.019Z,2.57
2019-05-25T06:00:16.963Z,2.60
2019-05-25T06:02:43.262Z,2.87
2019-05-25T06:05:10.041Z,2.30
2019-05-25T06:07:36.787Z,2.40
2019-05-25T06:10:06.379Z,2.17
2019-05-25T06:12:33.014Z,2.40
2019-05-25T06:14:59.550Z,2.60
2019-05-25T06:17:25.843Z,2.50
2019-05-25T06:19:52.417Z,2.73
2019-05-25T06:22:19.007Z,2.43
2019-05-25T06:24:45.276Z,2.70
2019-05-25T06:27:26.084Z,2.67
2019-05-25T06:29:40.203Z,2.90
2019-05-25T06:32:06.506Z,2.80
2019-05-25T06:34:33.178Z,2.07
2019-05-25T06:36:59.467Z,2.70
2019-05-25T06:39:25.768Z,2.60
2019-05-25T06:41:52.371Z,2.50
2019-05-25T06:44:19.316Z,2.70
2019-05-25T06:46:45.647Z,2.53
2019-05-25T06:49:12.033Z,2.10
2019-05-25T06:51:39.739Z,2.57
2019-05-25T06:54:06.232Z,2.53
2019-05-25T06:56:32.515Z,2.33
2019-05-25T06:58:59.000Z,2.40
2019-05-25T07:01:25.277Z,2.07
2019-05-25T07:03:52.223Z,2.50
2019-05-25T07:06:18.599Z,2.40
2019-05-25T07:08:44.871Z,2.60
2019-05-25T07:11:11.521Z,2.30
2019-05-25T07:13:37.797Z,2.67
2019-05-25T07:16:04.387Z,2.10
2019-05-25T07:18:31.021Z,2.83
2019-05-25T07:20:57.433Z,2.90
2019-05-25T07:23:23.796Z,2.70
2019-05-25T07:25:50.090Z,2.27
2019-05-25T07:28:16.363Z,3.13
2019-05-25T07:30:46.058Z,2.60
2019-05-25T07:33:11.571Z,2.70
2019-05-25T07:35:38.309Z,2.53
2019-05-25T07:38:04.897Z,2.77
2019-05-25T07:40:31.178Z,3.03
2019-05-25T07:42:57.451Z,2.40
2019-05-25T07:45:24.047Z,2.73
2019-05-25T07:47:50.320Z,2.57
2019-05-25T07:50:18.835Z,2.40
2019-05-25T07:52:45.141Z,2.77
2019-05-25T07:55:11.507Z,2.40
2019-05-25T07:57:37.904Z,2.30
2019-05-25T08:00:05.178Z,2.43
2019-05-25T08:02:32.762Z,1.90
2019-05-25T08:04:59.403Z,2.03
2019-05-25T08:07:26.843Z,2.00
2019-05-25T08:09:53.116Z,2.00
2019-05-25T08:12:19.731Z,2.03
2019-05-25T08:14:46.111Z,2.17
2019-05-25T08:17:12.713Z,2.20
2019-05-25T08:19:39.075Z,2.30
2019-05-25T08:22:05.487Z,2.20
2019-05-25T08:24:31.874Z,1.70
2019-05-25T08:26:58.537Z,2.37
2019-05-25T08:29:24.934Z,2.40
2019-05-25T08:31:51.311Z,2.57
2019-05-25T08:34:18.034Z,2.30
2019-05-25T08:36:44.586Z,2.60
2019-05-25T08:39:11.210Z,2.40
2019-05-25T08:41:37.483Z,2.20
2019-05-25T08:44:04.637Z,3.00
2019-05-25T08:46:31.159Z,2.00
2019-05-25T08:48:57.754Z,2.03
2019-05-25T08:51:24.332Z,2.03
2019-05-25T08:53:50.753Z,2.20
2019-05-25T08:56:17.017Z,2.03
2019-05-25T08:58:48.463Z,2.00
2019-05-25T09:01:11.883Z,2.13
2019-05-25T09:03:38.187Z,1.77
2019-05-25T09:06:04.542Z,2.07
2019-05-25T09:08:31.182Z,1.70
2019-05-25T09:10:58.692Z,2.03
2019-05-25T09:13:25.182Z,2.17
2019-05-25T09:15:51.459Z,2.70
2019-05-25T09:18:18.803Z,2.63
2019-05-25T09:20:45.234Z,2.30
2019-05-25T09:23:11.927Z,2.53
2019-05-25T09:25:39.223Z,2.80
2019-05-25T09:28:05.601Z,2.47
2019-05-25T09:30:32.104Z,2.40
2019-05-25T09:32:58.471Z,2.47
2019-05-25T09:35:24.863Z,2.07
2019-05-25T09:37:51.153Z,2.87
2019-05-25T09:40:18.299Z,2.57
2019-05-25T09:42:44.778Z,3.37
2019-05-25T09:45:14.067Z,3.12
2019-05-25T09:47:40.059Z,3.27
2019-05-25T09:50:07.514Z,3.45
2019-05-25T09:52:33.898Z,3.17
2019-05-25T09:55:00.289Z,2.90
2019-05-25T09:57:26.671Z,2.77
2019-05-25T09:59:52.942Z,3.67
2019-05-25T10:02:19.585Z,3.20
2019-05-25T10:04:46.342Z,2.80
2019-05-25T10:07:12.735Z,3.22
2019-05-25T10:09:40.211Z,3.05
2019-05-25T10:12:06.785Z,3.65
2019-05-25T10:14:33.188Z,3.85
2019-05-25T10:16:59.695Z,3.72
2019-05-25T10:19:26.095Z,3.75
2019-05-25T10:21:52.482Z,4.00
2019-05-25T10:24:19.224Z,4.15
2019-05-25T10:26:45.515Z,3.70
2019-05-25T10:29:12.186Z,3.65
2019-05-25T10:31:38.841Z,3.70
2019-05-25T10:34:05.214Z,3.75
2019-05-25T10:36:31.800Z,3.95
2019-05-25T10:38:58.799Z,3.50
2019-05-25T10:41:26.512Z,3.47
2019-05-25T10:43:53.882Z,4.03
2019-05-25T10:46:20.200Z,3.65
2019-05-25T10:48:46.465Z,3.35
2019-05-25T10:51:13.001Z,3.37
2019-05-25T10:53:39.803Z,2.95
2019-05-25T10:56:06.272Z,3.67
2019-05-25T10:58:32.874Z,3.58
2019-05-25T11:00:59.354Z,4.20
2019-05-25T11:03:26.155Z,3.72
2019-05-25T11:05:52.423Z,3.20
2019-05-25T11:08:18.719Z,3.22
2019-05-25T11:10:45.103Z,3.60
2019-05-25T11:13:11.511Z,3.33
2019-05-25T11:15:38.162Z,3.70
2019-05-25T11:18:04.585Z,3.80
2019-05-25T11:20:30.954Z,3.58
2019-05-25T11:22:57.623Z,3.20
2019-05-25T11:25:23.922Z,3.08
2019-05-25T11:27:50.274Z,3.50
2019-05-25T11:30:18.243Z,3.27
2019-05-25T11:32:44.839Z,2.58
2019-05-25T11:35:11.932Z,2.35
2019-05-25T11:37:38.778Z,2.47
2019-05-25T11:40:06.579Z,2.33
2019-05-25T11:42:32.852Z,2.30
2019-05-25T11:44:59.514Z,2.27
2019-05-25T11:47:26.153Z,2.35
2019-05-25T11:49:52.470Z,2.02
2019-05-25T11:52:18.847Z,2.10
2019-05-25T11:54:45.160Z,2.12
2019-05-25T11:57:11.445Z,2.65
2019-05-25T11:59:37.860Z,2.60
2019-05-25T12:02:04.543Z,2.27
2019-05-25T12:04:30.918Z,2.25
2019-05-25T12:06:57.215Z,2.17
2019-05-25T12:09:23.490Z,2.17
2019-05-25T12:11:49.780Z,2.45
2019-05-25T12:14:16.255Z,2.55
2019-05-25T12:16:43.989Z,2.60
2019-05-25T12:19:14.623Z,2.60
2019-05-25T12:21:39.706Z,2.52
2019-05-25T12:24:06.344Z,2.70
2019-05-25T12:26:33.102Z,2.60
2019-05-25T12:28:59.371Z,2.80
2019-05-25T12:31:26.159Z,2.70
2019-05-25T12:33:52.548Z,2.20
2019-05-25T12:36:19.136Z,2.42
2019-05-25T12:38:45.816Z,2.00
2019-05-25T12:41:12.203Z,2.20
2019-05-25T12:43:38.498Z,2.15
2019-05-25T12:46:06.007Z,2.67
2019-05-25T12:48:32.400Z,1.72
2019-05-25T12:50:59.063Z,1.65
2019-05-25T12:53:25.387Z,1.90
2019-05-25T12:55:51.759Z,1.67
2019-05-25T12:58:18.054Z,2.10
2019-05-25T13:00:55.577Z,2.30
2019-05-25T13:03:12.501Z,1.87
2019-05-25T13:05:39.054Z,1.70
2019-05-25T13:08:05.847Z,2.00
2019-05-25T13:10:32.331Z,1.60
2019-05-25T13:13:01.907Z,1.92
2019-05-25T13:15:26.899Z,1.70
2019-05-25T13:17:53.165Z,2.05
2019-05-25T13:20:19.846Z,1.77
2019-05-25T13:22:46.116Z,1.80
2019-05-25T13:25:12.569Z,1.70
2019-05-25T13:27:38.939Z,1.80
2019-05-25T13:30:06.458Z,1.40
2019-05-25T13:32:32.818Z,1.72
2019-05-25T13:34:59.430Z,2.00
2019-05-25T13:37:25.762Z,1.80
2019-05-25T13:39:52.363Z,1.90
2019-05-25T13:42:19.120Z,1.72
2019-05-25T13:44:47.307Z,2.08
2019-05-25T13:47:13.615Z,2.00
2019-05-25T13:49:39.982Z,2.07
2019-05-25T13:52:06.292Z,2.13
2019-05-25T13:54:32.559Z,1.93
2019-05-25T13:56:59.664Z,2.27
2019-05-25T13:59:25.946Z,2.00
2019-05-25T14:01:52.339Z,1.70
2019-05-25T14:04:18.602Z,1.80
2019-05-25T14:06:44.967Z,1.57
2019-05-25T14:09:15.637Z,1.47
2019-05-25T14:11:40.632Z,1.43
2019-05-25T14:14:07.138Z,2.60
2019-05-25T14:16:33.511Z,1.90
2019-05-25T14:18:59.807Z,2.33
2019-05-25T14:21:26.172Z,2.20
2019-05-25T14:23:52.576Z,2.40
2019-05-25T14:26:18.839Z,2.00
2019-05-25T14:28:45.269Z,1.90
2019-05-25T14:31:11.855Z,3.60
2019-05-25T14:33:38.143Z,3.00
2019-05-25T14:36:04.824Z,3.17
2019-05-25T14:38:31.138Z,3.43
2019-05-25T14:40:57.533Z,4.13
2019-05-25T14:43:23.826Z,3.20
2019-05-25T14:45:53.222Z,2.27
2019-05-25T14:48:18.272Z,2.30
2019-05-25T14:50:45.072Z,3.23
2019-05-25T14:53:11.805Z,3.57
2019-05-25T14:55:38.113Z,2.30
2019-05-25T14:58:04.683Z,2.77
2019-05-25T15:00:31.111Z,2.17
2019-05-25T15:02:57.391Z,1.40
2019-05-25T15:05:23.778Z,1.47
2019-05-25T15:07:50.043Z,1.47
2019-05-25T15:10:16.439Z,1.40
2019-05-25T15:12:42.798Z,1.30
2019-05-25T15:15:09.903Z,1.20
2019-05-25T15:17:37.379Z,1.13
2019-05-25T15:20:07.361Z,1.60
2019-05-25T15:22:33.721Z,1.30
2019-05-25T15:25:00.003Z,1.10
2019-05-25T15:27:26.468Z,1.53
2019-05-25T15:29:53.023Z,1.43
2019-05-25T15:32:20.588Z,1.20
2019-05-25T15:34:47.351Z,1.30
2019-05-25T15:37:13.651Z,1.30
2019-05-25T15:39:41.118Z,1.23
2019-05-25T15:42:07.560Z,1.60
2019-05-25T15:44:33.980Z,1.40
2019-05-25T15:47:00.379Z,1.10
2019-05-25T15:49:33.429Z,1.30
2019-05-25T15:51:55.240Z,1.50
2019-05-25T15:54:21.618Z,1.50
2019-05-25T15:56:48.000Z,1.53
2019-05-25T15:59:14.741Z,1.33
2019-05-25T16:01:41.368Z,1.23
2019-05-25T16:04:08.101Z,1.73
2019-05-25T16:06:34.478Z,1.40
2019-05-25T16:09:03.970Z,1.23
2019-05-25T16:11:32.257Z,1.17
2019-05-25T16:13:58.875Z,1.57
2019-05-25T16:16:30.206Z,1.33
2019-05-25T16:18:53.979Z,1.90
2019-05-25T16:21:20.275Z,1.83
2019-05-25T16:23:46.589Z,1.67
2019-05-25T16:26:13.282Z,1.70
2019-05-25T16:28:39.660Z,1.20
2019-05-25T16:31:05.945Z,1.33
2019-05-25T16:33:32.326Z,1.40
2019-05-25T16:35:58.778Z,1.63
2019-05-25T16:38:25.135Z,1.30
2019-05-25T16:40:51.439Z,1.70
2019-05-25T16:43:17.718Z,2.20
2019-05-25T16:45:44.086Z,1.90
2019-05-25T16:48:10.782Z,1.93
2019-05-25T16:50:37.150Z,1.57
2019-05-25T16:53:03.651Z,2.00
2019-05-25T16:55:30.018Z,2.20
2019-05-25T16:57:56.416Z,1.97
2019-05-25T17:00:27.457Z,1.80
2019-05-25T17:02:54.750Z,1.30
2019-05-25T17:05:21.383Z,1.73
2019-05-25T17:07:47.806Z,1.90
2019-05-25T17:10:14.239Z,1.83
2019-05-25T17:12:40.626Z,1.80
2019-05-25T17:15:07.410Z,2.30
2019-05-25T17:17:34.192Z,1.93
2019-05-25T17:20:00.463Z,2.10
2019-05-25T17:22:26.838Z,2.17
2019-05-25T17:24:53.218Z,2.20
2019-05-25T17:27:19.859Z,2.20
2019-05-25T17:29:46.173Z,2.00
2019-05-25T17:32:12.658Z,2.30
2019-05-25T17:34:39.071Z,2.47
2019-05-25T17:37:05.338Z,2.20
2019-05-25T17:39:32.019Z,2.40
2019-05-25T17:41:58.395Z,2.30
2019-05-25T17:44:24.794Z,2.47
2019-05-25T17:46:51.298Z,2.13
2019-05-25T17:49:19.091Z,2.27
2019-05-25T17:51:45.735Z,2.33
2019-05-25T17:54:12.133Z,2.20
2019-05-25T17:56:38.800Z,2.40
2019-05-25T17:59:05.213Z,2.50
2019-05-25T18:01:31.576Z,2.50
2019-05-25T18:04:06.769Z,2.47
2019-05-25T18:06:26.048Z,3.10
2019-05-25T18:08:52.371Z,2.50
2019-05-25T18:11:19.037Z,2.80
2019-05-25T18:13:45.433Z,2.33
2019-05-25T18:16:12.012Z,2.50
2019-05-25T18:18:38.311Z,2.63
2019-05-25T18:21:04.793Z,2.50
2019-05-25T18:23:31.484Z,2.80
2019-05-25T18:25:57.985Z,2.90
2019-05-25T18:28:24.707Z,2.60
2019-05-25T18:30:51.083Z,2.93
2019-05-25T18:33:17.863Z,2.80
2019-05-25T18:35:44.247Z,3.30
2019-05-25T18:38:10.840Z,2.47
2019-05-25T18:40:37.576Z,3.03
2019-05-25T18:43:04.184Z,3.43
2019-05-25T18:45:30.645Z,2.90
2019-05-25T18:47:57.427Z,3.10
2019-05-25T18:50:24.232Z,3.13
2019-05-25T18:52:50.723Z,3.27
2019-05-25T18:55:18.295Z,3.07
2019-05-25T18:57:44.587Z,3.40
2019-05-25T19:00:11.350Z,3.30
2019-05-25T19:02:37.968Z,3.23
2019-05-25T19:05:05.535Z,3.00
2019-05-25T19:07:31.822Z,2.97
2019-05-25T19:09:58.090Z,2.93
2019-05-25T19:12:24.366Z,2.93
2019-05-25T19:14:50.927Z,3.47
2019-05-25T19:17:17.561Z,2.80
2019-05-25T19:19:43.967Z,3.47
2019-05-25T19:22:10.731Z,3.80
2019-05-25T19:24:37.002Z,2.70
2019-05-25T19:27:03.808Z,2.70
2019-05-25T19:29:30.434Z,2.97
2019-05-25T19:31:57.091Z,3.40
2019-05-25T19:34:23.383Z,3.07
2019-05-25T19:36:49.889Z,2.73
2019-05-25T19:39:16.320Z,2.97
2019-05-25T19:41:42.916Z,2.70
2019-05-25T19:44:09.589Z,2.67
2019-05-25T19:46:36.199Z,2.80
2019-05-25T19:49:02.595Z,3.43
2019-05-25T19:51:28.882Z,2.87
2019-05-25T19:53:55.280Z,2.60
2019-05-25T19:56:21.657Z,2.23
2019-05-25T19:58:48.255Z,2.53
2019-05-25T20:01:14.743Z,2.53
2019-05-25T20:03:41.336Z,2.53
2019-05-25T20:06:07.632Z,2.53
2019-05-25T20:08:33.898Z,2.50
2019-05-25T20:11:00.203Z,2.40
2019-05-25T20:13:26.664Z,2.37
2019-05-25T20:15:53.064Z,2.47
2019-05-25T20:18:19.499Z,2.87
2019-05-25T20:20:46.262Z,2.50
2019-05-25T20:23:12.825Z,2.37
2019-05-25T20:25:39.342Z,2.40
2019-05-25T20:28:05.967Z,2.47
2019-05-25T20:30:32.615Z,2.57
2019-05-25T20:32:58.914Z,2.40
2019-05-25T20:35:33.207Z,2.53
2019-05-25T20:37:53.764Z,2.13
2019-05-25T20:40:20.161Z,2.37
2019-05-25T20:42:46.554Z,2.37
2019-05-25T20:45:13.383Z,2.33
2019-05-25T20:47:39.978Z,2.50
2019-05-25T20:50:07.359Z,2.17
2019-05-25T20:52:34.100Z,2.03
2019-05-25T20:55:00.496Z,2.40
2019-05-25T20:57:26.861Z,2.70
2019-05-25T20:59:53.499Z,2.40
2019-05-25T21:02:19.796Z,2.67
2019-05-25T21:04:46.470Z,2.70
2019-05-25T21:07:13.029Z,2.57
2019-05-25T21:09:39.530Z,2.33
2019-05-25T21:12:06.063Z,2.33
2019-05-25T21:14:32.715Z,2.27
2019-05-25T21:16:58.981Z,2.30
2019-05-25T21:19:25.583Z,2.70
2019-05-25T21:21:52.227Z,3.00
2019-05-25T21:24:18.623Z,3.53
2019-05-25T21:37:55.250Z,2.30
2019-05-25T21:40:21.574Z,2.27
2019-05-25T21:42:47.960Z,2.70
2019-05-25T21:45:14.730Z,2.57
2019-05-25T21:47:41.075Z,2.70
2019-05-25T21:50:07.654Z,2.70
2019-05-25T21:52:34.451Z,2.70
2019-05-25T21:55:00.844Z,2.30
2019-05-25T21:57:27.109Z,2.77
2019-05-25T21:59:53.407Z,2.63
2019-05-25T22:02:19.791Z,2.60
2019-05-25T22:04:46.160Z,2.93
2019-05-25T22:07:12.643Z,2.80
2019-05-25T22:09:39.351Z,2.73
2019-05-25T22:12:05.745Z,3.87
2019-05-25T22:14:32.011Z,3.80
2019-05-25T22:16:58.294Z,3.70
2019-05-25T22:19:24.662Z,3.73
2019-05-25T22:21:51.311Z,3.03
2019-05-25T22:24:17.618Z,3.13
2019-05-25T22:26:44.015Z,3.33
2019-05-25T22:29:10.710Z,3.20
2019-05-25T22:31:37.001Z,3.37
2019-05-25T22:34:03.390Z,3.77
2019-05-25T22:36:39.920Z,3.77
2019-05-25T22:38:57.982Z,3.70
2019-05-25T22:41:24.352Z,3.10
2019-05-25T22:43:50.747Z,3.33
2019-05-25T22:46:17.211Z,3.40
2019-05-25T22:48:43.502Z,3.30
2019-05-25T22:51:10.150Z,3.10
2019-05-25T22:53:36.538Z,3.27
2019-05-25T22:56:03.318Z,3.13
2019-05-25T22:58:29.710Z,3.00
2019-05-25T23:00:56.286Z,3.13
2019-05-25T23:03:22.586Z,3.10
2019-05-25T23:05:49.262Z,3.30
2019-05-25T23:08:15.551Z,3.30
2019-05-25T23:10:42.168Z,3.10
2019-05-25T23:13:08.564Z,3.10
2019-05-25T23:15:34.854Z,3.03
2019-05-25T23:18:01.322Z,3.20
2019-05-25T23:20:27.892Z,3.70
2019-05-25T23:22:54.304Z,3.97
2019-05-25T23:25:20.689Z,3.53
2019-05-25T23:27:47.472Z,3.80
2019-05-25T23:30:14.458Z,3.40
2019-05-25T23:32:40.871Z,2.90
2019-05-25T23:35:07.591Z,3.10
2019-05-25T23:37:34.147Z,2.77
2019-05-25T23:40:00.535Z,2.83
2019-05-25T23:42:26.917Z,3.07
2019-05-25T23:44:53.641Z,2.93
2019-05-25T23:47:20.018Z,3.07
2019-05-25T23:49:46.611Z,3.40
2019-05-25T23:52:12.870Z,3.37
2019-05-25T23:54:39.467Z,2.90
2019-05-25T23:57:05.831Z,2.67
2019-05-25T23:59:32.264Z,2.90
